sensor_id;sensor_type;location;lat;lon;timestamp;pressure;altitude;pressure_sealevel;temperature;humidity
64019;BME280;66942;52.138;5.216;2023-08-30T00:00:40;100886.0;;;21.46;47.49
64019;BME280;66942;52.138;5.216;2023-08-30T00:02:17;100885.0;;;21.45;47.43
64019;BME280;66942;52.138;5.216;2023-08-30T00:03:53;100881.0;;;21.44;47.5
64019;BME280;66942;52.138;5.216;2023-08-30T00:05:29;100881.0;;;21.3;47.75
64019;BME280;66942;52.138;5.216;2023-08-30T00:08:42;100877.0;;;21.3;47.69
64019;BME280;66942;52.138;5.216;2023-08-30T00:10:18;100871.0;;;21.22;47.85
64019;BME280;66942;52.138;5.216;2023-08-30T00:11:54;100871.0;;;21.41;47.48
64019;BME280;66942;52.138;5.216;2023-08-30T00:15:08;100872.0;;;21.45;47.38
64019;BME280;66942;52.138;5.216;2023-08-30T00:16:44;100867.0;;;21.33;47.79
64019;BME280;66942;52.138;5.216;2023-08-30T00:18:20;100866.0;;;21.18;48.35
64019;BME280;66942;52.138;5.216;2023-08-30T00:21:34;100858.0;;;21.22;48.17
64019;BME280;66942;52.138;5.216;2023-08-30T00:23:10;100857.0;;;21.2;48.4
64019;BME280;66942;52.138;5.216;2023-08-30T00:24:46;100849.0;;;21.08;48.68
64019;BME280;66942;52.138;5.216;2023-08-30T00:26:22;100852.0;;;21.26;48.4
64019;BME280;66942;52.138;5.216;2023-08-30T00:29:34;100850.0;;;21.36;48.17
64019;BME280;66942;52.138;5.216;2023-08-30T00:31:10;100851.0;;;21.34;48.24
64019;BME280;66942;52.138;5.216;2023-08-30T00:32:46;100850.0;;;21.53;47.79
64019;BME280;66942;52.138;5.216;2023-08-30T00:35:59;100846.0;;;21.37;48.06
64019;BME280;66942;52.138;5.216;2023-08-30T00:37:36;100845.0;;;21.43;48.01
64019;BME280;66942;52.138;5.216;2023-08-30T00:39:12;100843.0;;;21.57;47.9
64019;BME280;66942;52.138;5.216;2023-08-30T00:42:24;100840.0;;;21.47;48.09
64019;BME280;66942;52.138;5.216;2023-08-30T00:44:00;100843.0;;;21.43;48.25
64019;BME280;66942;52.138;5.216;2023-08-30T00:45:37;100843.0;;;21.66;47.84
64019;BME280;66942;52.138;5.216;2023-08-30T00:48:52;100836.0;;;21.43;48.34
64019;BME280;66942;52.138;5.216;2023-08-30T00:50:29;100840.0;;;21.58;47.99
64019;BME280;66942;52.138;5.216;2023-08-30T00:52:06;100841.0;;;21.73;47.5
64019;BME280;66942;52.138;5.216;2023-08-30T00:53:45;100840.0;;;21.7;47.66
64019;BME280;66942;52.138;5.216;2023-08-30T00:57:00;100841.0;;;21.65;47.97
64019;BME280;66942;52.138;5.216;2023-08-30T00:58:37;100838.0;;;21.83;47.56
64019;BME280;66942;52.138;5.216;2023-08-30T01:00:13;100836.0;;;21.91;47.48
64019;BME280;66942;52.138;5.216;2023-08-30T01:03:27;100833.0;;;21.98;47.11
64019;BME280;66942;52.138;5.216;2023-08-30T01:05:03;100830.0;;;22.0;47.15
64019;BME280;66942;52.138;5.216;2023-08-30T01:06:39;100828.0;;;21.97;47.03
64019;BME280;66942;52.138;5.216;2023-08-30T01:08:15;100830.0;;;21.88;47.07
64019;BME280;66942;52.138;5.216;2023-08-30T01:11:34;100830.0;;;22.0;46.96
64019;BME280;66942;52.138;5.216;2023-08-30T01:13:15;100824.0;;;22.05;46.7
64019;BME280;66942;52.138;5.216;2023-08-30T01:14:59;100823.0;;;22.12;46.67
64019;BME280;66942;52.138;5.216;2023-08-30T01:16:37;100824.0;;;22.07;46.73
64019;BME280;66942;52.138;5.216;2023-08-30T01:19:58;100826.0;;;22.17;46.61
64019;BME280;66942;52.138;5.216;2023-08-30T01:21:45;100825.0;;;22.18;46.51
64019;BME280;66942;52.138;5.216;2023-08-30T01:23:36;100824.0;;;22.23;46.42
64019;BME280;66942;52.138;5.216;2023-08-30T01:25:24;100826.0;;;22.25;46.38
64019;BME280;66942;52.138;5.216;2023-08-30T01:27:15;100821.0;;;22.27;46.17
64019;BME280;66942;52.138;5.216;2023-08-30T01:30:31;100827.0;;;22.11;46.56
64019;BME280;66942;52.138;5.216;2023-08-30T01:32:08;100822.0;;;22.22;46.29
64019;BME280;66942;52.138;5.216;2023-08-30T01:33:45;100818.0;;;22.34;46.04
64019;BME280;66942;52.138;5.216;2023-08-30T01:37:01;100822.0;;;22.29;46.19
64019;BME280;66942;52.138;5.216;2023-08-30T01:38:39;100817.0;;;22.31;46.16
64019;BME280;66942;52.138;5.216;2023-08-30T01:40:17;100818.0;;;22.35;45.99
64019;BME280;66942;52.138;5.216;2023-08-30T01:41:55;100820.0;;;22.32;46.04
64019;BME280;66942;52.138;5.216;2023-08-30T01:45:10;100813.0;;;22.41;45.81
64019;BME280;66942;52.138;5.216;2023-08-30T01:46:47;100810.0;;;22.46;45.65
64019;BME280;66942;52.138;5.216;2023-08-30T01:48:24;100807.0;;;22.43;45.75
64019;BME280;66942;52.138;5.216;2023-08-30T01:51:40;100805.0;;;22.35;45.84
64019;BME280;66942;52.138;5.216;2023-08-30T01:53:17;100802.0;;;22.3;45.95
64019;BME280;66942;52.138;5.216;2023-08-30T01:54:53;100803.0;;;22.41;45.91
64019;BME280;66942;52.138;5.216;2023-08-30T01:56:29;100799.0;;;22.42;45.75
64019;BME280;66942;52.138;5.216;2023-08-30T01:59:43;100798.0;;;22.49;45.6
64019;BME280;66942;52.138;5.216;2023-08-30T02:01:19;100796.0;;;22.54;45.51
64019;BME280;66942;52.138;5.216;2023-08-30T02:02:56;100799.0;;;22.58;45.33
64019;BME280;66942;52.138;5.216;2023-08-30T02:06:11;100794.0;;;22.58;45.2
64019;BME280;66942;52.138;5.216;2023-08-30T02:07:55;100793.0;;;22.63;45.18
64019;BME280;66942;52.138;5.216;2023-08-30T02:09:38;100795.0;;;22.66;45.23
64019;BME280;66942;52.138;5.216;2023-08-30T02:11:26;100792.0;;;22.55;45.36
64019;BME280;66942;52.138;5.216;2023-08-30T02:14:44;100790.0;;;22.35;46.0
64019;BME280;66942;52.138;5.216;2023-08-30T02:16:25;100792.0;;;22.47;45.84
64019;BME280;66942;52.138;5.216;2023-08-30T02:18:04;100791.0;;;22.45;45.83
64019;BME280;66942;52.138;5.216;2023-08-30T02:19:42;100792.0;;;22.57;45.42
64019;BME280;66942;52.138;5.216;2023-08-30T02:22:58;100791.0;;;22.48;45.35
64019;BME280;66942;52.138;5.216;2023-08-30T02:24:34;100791.0;;;22.36;45.69
64019;BME280;66942;52.138;5.216;2023-08-30T02:26:10;100790.0;;;22.26;45.76
64019;BME280;66942;52.138;5.216;2023-08-30T02:27:47;100791.0;;;22.41;45.67
64019;BME280;66942;52.138;5.216;2023-08-30T02:30:59;100789.0;;;22.33;45.9
64019;BME280;66942;52.138;5.216;2023-08-30T02:32:35;100787.0;;;22.43;45.7
64019;BME280;66942;52.138;5.216;2023-08-30T02:34:11;100782.0;;;22.32;45.79
64019;BME280;66942;52.138;5.216;2023-08-30T02:37:23;100778.0;;;22.31;45.88
64019;BME280;66942;52.138;5.216;2023-08-30T02:38:59;100775.0;;;22.55;45.14
64019;BME280;66942;52.138;5.216;2023-08-30T02:40:35;100773.0;;;22.37;45.5
64019;BME280;66942;52.138;5.216;2023-08-30T02:43:48;100769.0;;;22.19;45.91
64019;BME280;66942;52.138;5.216;2023-08-30T02:45:24;100768.0;;;22.22;46.11
64019;BME280;66942;52.138;5.216;2023-08-30T02:47:00;100768.0;;;22.3;45.5
64019;BME280;66942;52.138;5.216;2023-08-30T02:50:12;100767.0;;;22.2;45.7
64019;BME280;66942;52.138;5.216;2023-08-30T02:51:48;100764.0;;;21.99;45.96
64019;BME280;66942;52.138;5.216;2023-08-30T02:53:24;100760.0;;;21.94;46.26
64019;BME280;66942;52.138;5.216;2023-08-30T02:55:01;100760.0;;;21.99;45.87
64019;BME280;66942;52.138;5.216;2023-08-30T02:58:14;100753.0;;;21.83;46.28
64019;BME280;66942;52.138;5.216;2023-08-30T02:59:50;100755.0;;;21.64;46.71
64019;BME280;66942;52.138;5.216;2023-08-30T03:01:26;100755.0;;;21.73;46.59
64019;BME280;66942;52.138;5.216;2023-08-30T03:04:39;100750.0;;;21.63;46.87
64019;BME280;66942;52.138;5.216;2023-08-30T03:06:15;100744.0;;;21.69;46.71
64019;BME280;66942;52.138;5.216;2023-08-30T03:07:52;100745.0;;;21.65;46.96
64019;BME280;66942;52.138;5.216;2023-08-30T03:11:09;100736.0;;;21.83;46.25
64019;BME280;66942;52.138;5.216;2023-08-30T03:12:45;100736.0;;;21.59;46.91
64019;BME280;66942;52.138;5.216;2023-08-30T03:14:21;100730.0;;;21.71;47.12
64019;BME280;66942;52.138;5.216;2023-08-30T03:15:57;100727.0;;;21.65;47.0
64019;BME280;66942;52.138;5.216;2023-08-30T03:19:10;100726.0;;;21.6;47.13
64019;BME280;66942;52.138;5.216;2023-08-30T03:20:46;100721.0;;;21.71;46.72
64019;BME280;66942;52.138;5.216;2023-08-30T03:22:23;100720.0;;;21.83;46.42
64019;BME280;66942;52.138;5.216;2023-08-30T03:25:35;100719.0;;;21.86;46.13
64019;BME280;66942;52.138;5.216;2023-08-30T03:27:11;100717.0;;;22.17;45.37
64019;BME280;66942;52.138;5.216;2023-08-30T03:28:47;100717.0;;;22.22;45.09
64019;BME280;66942;52.138;5.216;2023-08-30T03:31:59;100711.0;;;21.92;45.73
64019;BME280;66942;52.138;5.216;2023-08-30T03:33:35;100709.0;;;22.0;45.32
64019;BME280;66942;52.138;5.216;2023-08-30T03:35:11;100706.0;;;21.79;45.53
64019;BME280;66942;52.138;5.216;2023-08-30T03:36:48;100707.0;;;21.56;45.99
64019;BME280;66942;52.138;5.216;2023-08-30T03:40:00;100701.0;;;21.54;46.0
64019;BME280;66942;52.138;5.216;2023-08-30T03:41:36;100700.0;;;21.52;46.07
64019;BME280;66942;52.138;5.216;2023-08-30T03:43:12;100696.0;;;21.47;46.06
64019;BME280;66942;52.138;5.216;2023-08-30T03:46:24;100692.0;;;21.51;45.96
64019;BME280;66942;52.138;5.216;2023-08-30T03:48:00;100689.0;;;21.65;45.53
64019;BME280;66942;52.138;5.216;2023-08-30T03:49:36;100682.0;;;21.64;45.26
64019;BME280;66942;52.138;5.216;2023-08-30T03:52:49;100681.0;;;21.48;45.78
64019;BME280;66942;52.138;5.216;2023-08-30T03:54:25;100677.0;;;21.42;45.83
64019;BME280;66942;52.138;5.216;2023-08-30T03:56:01;100676.0;;;21.48;45.9
64019;BME280;66942;52.138;5.216;2023-08-30T03:59:13;100672.0;;;21.43;45.74
64019;BME280;66942;52.138;5.216;2023-08-30T04:00:49;100672.0;;;21.32;45.98
64019;BME280;66942;52.138;5.216;2023-08-30T04:02:25;100669.0;;;21.35;45.63
64019;BME280;66942;52.138;5.216;2023-08-30T04:04:02;100672.0;;;21.54;45.17
64019;BME280;66942;52.138;5.216;2023-08-30T04:07:14;100672.0;;;21.43;45.57
64019;BME280;66942;52.138;5.216;2023-08-30T04:08:50;100673.0;;;21.42;45.49
64019;BME280;66942;52.138;5.216;2023-08-30T04:10:26;100668.0;;;21.51;45.35
64019;BME280;66942;52.138;5.216;2023-08-30T04:13:39;100667.0;;;21.39;45.48
64019;BME280;66942;52.138;5.216;2023-08-30T04:15:15;100668.0;;;21.25;45.83
64019;BME280;66942;52.138;5.216;2023-08-30T04:16:52;100669.0;;;21.38;45.59
64019;BME280;66942;52.138;5.216;2023-08-30T04:20:06;100669.0;;;21.66;44.98
64019;BME280;66942;52.138;5.216;2023-08-30T04:21:43;100668.0;;;21.7;44.88
64019;BME280;66942;52.138;5.216;2023-08-30T04:23:19;100665.0;;;21.78;44.68
64019;BME280;66942;52.138;5.216;2023-08-30T04:24:55;100666.0;;;21.42;45.51
64019;BME280;66942;52.138;5.216;2023-08-30T04:28:07;100667.0;;;21.47;45.38
64019;BME280;66942;52.138;5.216;2023-08-30T04:29:43;100667.0;;;21.43;45.44
64019;BME280;66942;52.138;5.216;2023-08-30T04:31:19;100668.0;;;21.26;45.65
64019;BME280;66942;52.138;5.216;2023-08-30T04:32:56;100672.0;;;21.04;46.34
64019;BME280;66942;52.138;5.216;2023-08-30T04:36:08;100670.0;;;21.25;45.77
64019;BME280;66942;52.138;5.216;2023-08-30T04:37:44;100668.0;;;21.46;45.45
64019;BME280;66942;52.138;5.216;2023-08-30T04:39:20;100656.0;;;21.43;45.83
64019;BME280;66942;52.138;5.216;2023-08-30T04:42:33;100651.0;;;21.25;46.02
64019;BME280;66942;52.138;5.216;2023-08-30T04:44:09;100649.0;;;21.33;45.75
64019;BME280;66942;52.138;5.216;2023-08-30T04:45:47;100650.0;;;21.29;45.61
64019;BME280;66942;52.138;5.216;2023-08-30T04:49:00;100649.0;;;21.24;45.65
64019;BME280;66942;52.138;5.216;2023-08-30T04:50:36;100649.0;;;21.06;46.19
64019;BME280;66942;52.138;5.216;2023-08-30T04:52:12;100648.0;;;21.0;46.33
64019;BME280;66942;52.138;5.216;2023-08-30T04:55:24;100646.0;;;20.96;46.15
64019;BME280;66942;52.138;5.216;2023-08-30T04:57:00;100642.0;;;21.07;45.83
64019;BME280;66942;52.138;5.216;2023-08-30T04:58:36;100644.0;;;21.11;45.68
64019;BME280;66942;52.138;5.216;2023-08-30T05:00:13;100644.0;;;20.95;46.22
64019;BME280;66942;52.138;5.216;2023-08-30T05:03:26;100640.0;;;20.94;46.3
64019;BME280;66942;52.138;5.216;2023-08-30T05:05:02;100628.0;;;20.96;46.09
64019;BME280;66942;52.138;5.216;2023-08-30T05:06:38;100627.0;;;20.89;46.0
64019;BME280;66942;52.138;5.216;2023-08-30T05:09:50;100623.0;;;20.9;46.19
64019;BME280;66942;52.138;5.216;2023-08-30T05:11:26;100624.0;;;20.81;46.08
64019;BME280;66942;52.138;5.216;2023-08-30T05:13:03;100623.0;;;21.01;45.69
64019;BME280;66942;52.138;5.216;2023-08-30T05:16:14;100625.0;;;20.89;45.97
64019;BME280;66942;52.138;5.216;2023-08-30T05:17:51;100619.0;;;21.06;45.38
64019;BME280;66942;52.138;5.216;2023-08-30T05:19:27;100618.0;;;21.17;45.09
64019;BME280;66942;52.138;5.216;2023-08-30T05:21:04;100617.0;;;21.03;45.3
64019;BME280;66942;52.138;5.216;2023-08-30T05:24:16;100618.0;;;20.98;45.58
64019;BME280;66942;52.138;5.216;2023-08-30T05:25:52;100619.0;;;20.93;45.82
64019;BME280;66942;52.138;5.216;2023-08-30T05:27:28;100624.0;;;21.16;45.43
64019;BME280;66942;52.138;5.216;2023-08-30T05:30:42;100620.0;;;21.28;44.94
64019;BME280;66942;52.138;5.216;2023-08-30T05:32:18;100624.0;;;21.35;44.99
64019;BME280;66942;52.138;5.216;2023-08-30T05:33:55;100623.0;;;21.31;44.9
64019;BME280;66942;52.138;5.216;2023-08-30T05:37:07;100628.0;;;21.38;45.11
64019;BME280;66942;52.138;5.216;2023-08-30T05:38:43;100627.0;;;21.52;44.55
64019;BME280;66942;52.138;5.216;2023-08-30T05:40:19;100628.0;;;21.58;44.41
64019;BME280;66942;52.138;5.216;2023-08-30T05:43:31;100631.0;;;21.53;44.6
64019;BME280;66942;52.138;5.216;2023-08-30T05:45:09;100639.0;;;21.46;44.95
64019;BME280;66942;52.138;5.216;2023-08-30T05:46:45;100639.0;;;21.58;45.15
64019;BME280;66942;52.138;5.216;2023-08-30T05:48:22;100637.0;;;21.61;45.11
64019;BME280;66942;52.138;5.216;2023-08-30T05:51:34;100644.0;;;21.61;44.9
64019;BME280;66942;52.138;5.216;2023-08-30T05:53:10;100645.0;;;21.7;44.71
64019;BME280;66942;52.138;5.216;2023-08-30T05:54:46;100638.0;;;21.88;44.27
64019;BME280;66942;52.138;5.216;2023-08-30T05:58:00;100641.0;;;21.85;44.44
64019;BME280;66942;52.138;5.216;2023-08-30T05:59:36;100642.0;;;21.9;44.38
64019;BME280;66942;52.138;5.216;2023-08-30T06:01:13;100637.0;;;22.07;44.23
64019;BME280;66942;52.138;5.216;2023-08-30T06:04:26;100633.0;;;22.16;44.2
64019;BME280;66942;52.138;5.216;2023-08-30T06:06:02;100628.0;;;22.2;43.89
64019;BME280;66942;52.138;5.216;2023-08-30T06:07:38;100624.0;;;22.09;43.94
64019;BME280;66942;52.138;5.216;2023-08-30T06:09:14;100622.0;;;22.03;44.34
64019;BME280;66942;52.138;5.216;2023-08-30T06:12:26;100620.0;;;21.91;45.12
64019;BME280;66942;52.138;5.216;2023-08-30T06:14:02;100617.0;;;21.98;44.96
64019;BME280;66942;52.138;5.216;2023-08-30T06:15:38;100611.0;;;21.9;45.38
64019;BME280;66942;52.138;5.216;2023-08-30T06:18:50;100608.0;;;21.68;46.45
64019;BME280;66942;52.138;5.216;2023-08-30T06:20:27;100610.0;;;21.66;46.23
64019;BME280;66942;52.138;5.216;2023-08-30T06:22:04;100611.0;;;21.55;46.95
64019;BME280;66942;52.138;5.216;2023-08-30T06:25:17;100611.0;;;21.47;47.63
64019;BME280;66942;52.138;5.216;2023-08-30T06:26:53;100611.0;;;21.6;47.29
64019;BME280;66942;52.138;5.216;2023-08-30T06:28:29;100612.0;;;21.46;47.87
64019;BME280;66942;52.138;5.216;2023-08-30T06:30:06;100612.0;;;21.63;47.47
64019;BME280;66942;52.138;5.216;2023-08-30T06:33:19;100607.0;;;21.56;47.69
64019;BME280;66942;52.138;5.216;2023-08-30T06:34:56;100606.0;;;21.66;47.7
64019;BME280;66942;52.138;5.216;2023-08-30T06:36:32;100603.0;;;21.77;47.34
64019;BME280;66942;52.138;5.216;2023-08-30T06:39:44;100597.0;;;21.66;47.56
64019;BME280;66942;52.138;5.216;2023-08-30T06:41:20;100605.0;;;21.54;47.98
64019;BME280;66942;52.138;5.216;2023-08-30T06:42:56;100602.0;;;21.43;48.72
64019;BME280;66942;52.138;5.216;2023-08-30T06:46:08;100594.0;;;21.73;47.99
64019;BME280;66942;52.138;5.216;2023-08-30T06:47:44;100597.0;;;21.8;47.7
64019;BME280;66942;52.138;5.216;2023-08-30T06:49:21;100587.0;;;21.66;47.97
64019;BME280;66942;52.138;5.216;2023-08-30T06:52:34;100588.0;;;21.8;48.22
64019;BME280;66942;52.138;5.216;2023-08-30T06:54:10;100583.0;;;21.77;48.13
64019;BME280;66942;52.138;5.216;2023-08-30T06:55:46;100581.0;;;21.86;48.01
64019;BME280;66942;52.138;5.216;2023-08-30T06:57:32;100577.0;;;22.01;47.88
64019;BME280;66942;52.138;5.216;2023-08-30T07:00:45;100576.0;;;22.02;47.84
64019;BME280;66942;52.138;5.216;2023-08-30T07:02:21;100580.0;;;21.86;48.42
64019;BME280;66942;52.138;5.216;2023-08-30T07:03:57;100573.0;;;22.04;48.05
64019;BME280;66942;52.138;5.216;2023-08-30T07:07:09;100573.0;;;22.04;48.11
64019;BME280;66942;52.138;5.216;2023-08-30T07:08:47;100568.0;;;22.01;48.26
64019;BME280;66942;52.138;5.216;2023-08-30T07:10:23;100572.0;;;22.15;48.07
64019;BME280;66942;52.138;5.216;2023-08-30T07:12:00;100568.0;;;22.09;48.33
64019;BME280;66942;52.138;5.216;2023-08-30T07:15:13;100566.0;;;22.14;48.14
64019;BME280;66942;52.138;5.216;2023-08-30T07:16:50;100563.0;;;22.26;48.08
64019;BME280;66942;52.138;5.216;2023-08-30T07:18:26;100560.0;;;22.18;48.28
64019;BME280;66942;52.138;5.216;2023-08-30T07:21:39;100556.0;;;22.05;48.76
64019;BME280;66942;52.138;5.216;2023-08-30T07:23:16;100549.0;;;22.27;48.55
64019;BME280;66942;52.138;5.216;2023-08-30T07:24:52;100550.0;;;22.17;48.72
64019;BME280;66942;52.138;5.216;2023-08-30T07:28:04;100551.0;;;22.31;48.51
64019;BME280;66942;52.138;5.216;2023-08-30T07:29:41;100552.0;;;22.53;47.98
64019;BME280;66942;52.138;5.216;2023-08-30T07:31:17;100544.0;;;22.46;48.2
64019;BME280;66942;52.138;5.216;2023-08-30T07:32:54;100543.0;;;22.39;48.44
64019;BME280;66942;52.138;5.216;2023-08-30T07:36:06;100542.0;;;22.38;48.71
64019;BME280;66942;52.138;5.216;2023-08-30T07:37:42;100538.0;;;22.52;48.5
64019;BME280;66942;52.138;5.216;2023-08-30T07:39:18;100536.0;;;22.57;48.18
64019;BME280;66942;52.138;5.216;2023-08-30T07:42:30;100530.0;;;22.66;48.31
64019;BME280;66942;52.138;5.216;2023-08-30T07:44:06;100525.0;;;22.91;47.84
64019;BME280;66942;52.138;5.216;2023-08-30T07:45:42;100519.0;;;22.73;48.45
64019;BME280;66942;52.138;5.216;2023-08-30T07:48:54;100515.0;;;22.83;48.01
64019;BME280;66942;52.138;5.216;2023-08-30T07:50:30;100510.0;;;22.92;47.97
64019;BME280;66942;52.138;5.216;2023-08-30T07:52:07;100506.0;;;22.85;48.21
64019;BME280;66942;52.138;5.216;2023-08-30T07:55:19;100501.0;;;22.96;47.95
64019;BME280;66942;52.138;5.216;2023-08-30T07:56:55;100494.0;;;23.21;47.5
64019;BME280;66942;52.138;5.216;2023-08-30T07:58:31;100483.0;;;23.2;47.7
64019;BME280;66942;52.138;5.216;2023-08-30T08:00:08;100467.0;;;23.07;48.03
64019;BME280;66942;52.138;5.216;2023-08-30T08:03:21;100475.0;;;23.06;48.03
64019;BME280;66942;52.138;5.216;2023-08-30T08:04:58;100487.0;;;23.28;47.87
64019;BME280;66942;52.138;5.216;2023-08-30T08:06:34;100497.0;;;23.37;47.78
64019;BME280;66942;52.138;5.216;2023-08-30T08:09:46;100508.0;;;23.35;47.79
64019;BME280;66942;52.138;5.216;2023-08-30T08:11:22;100505.0;;;23.22;47.91
64019;BME280;66942;52.138;5.216;2023-08-30T08:12:58;100496.0;;;23.19;48.31
64019;BME280;66942;52.138;5.216;2023-08-30T08:16:11;100503.0;;;23.31;47.9
64019;BME280;66942;52.138;5.216;2023-08-30T08:17:47;100500.0;;;23.3;47.93
64019;BME280;66942;52.138;5.216;2023-08-30T08:19:23;100493.0;;;23.36;48.07
64019;BME280;66942;52.138;5.216;2023-08-30T08:21:00;100493.0;;;23.33;48.22
64019;BME280;66942;52.138;5.216;2023-08-30T08:24:13;100492.0;;;23.3;48.2
64019;BME280;66942;52.138;5.216;2023-08-30T08:25:49;100498.0;;;23.15;48.17
64019;BME280;66942;52.138;5.216;2023-08-30T08:27:25;100493.0;;;23.36;47.83
64019;BME280;66942;52.138;5.216;2023-08-30T08:30:37;100497.0;;;23.24;47.78
64019;BME280;66942;52.138;5.216;2023-08-30T08:32:14;100498.0;;;23.52;47.38
64019;BME280;66942;52.138;5.216;2023-08-30T08:33:51;100495.0;;;23.33;48.13
64019;BME280;66942;52.138;5.216;2023-08-30T08:35:39;100495.0;;;23.54;47.59
64019;BME280;66942;52.138;5.216;2023-08-30T08:38:52;100494.0;;;23.53;47.82
64019;BME280;66942;52.138;5.216;2023-08-30T08:40:28;100494.0;;;23.62;47.79
64019;BME280;66942;52.138;5.216;2023-08-30T08:42:04;100490.0;;;23.56;47.86
64019;BME280;66942;52.138;5.216;2023-08-30T08:45:18;100493.0;;;23.57;47.96
64019;BME280;66942;52.138;5.216;2023-08-30T08:46:55;100493.0;;;23.53;48.08
64019;BME280;66942;52.138;5.216;2023-08-30T08:48:33;100488.0;;;23.57;47.98
64019;BME280;66942;52.138;5.216;2023-08-30T08:50:15;100487.0;;;23.68;47.88
64019;BME280;66942;52.138;5.216;2023-08-30T08:53:28;100485.0;;;23.7;47.74
64019;BME280;66942;52.138;5.216;2023-08-30T08:55:05;100484.0;;;23.78;47.79
64019;BME280;66942;52.138;5.216;2023-08-30T08:56:42;100477.0;;;23.65;47.78
64019;BME280;66942;52.138;5.216;2023-08-30T08:59:56;100476.0;;;23.56;48.21
64019;BME280;66942;52.138;5.216;2023-08-30T09:01:33;100478.0;;;23.67;48.03
64019;BME280;66942;52.138;5.216;2023-08-30T09:03:11;100477.0;;;23.55;48.4
64019;BME280;66942;52.138;5.216;2023-08-30T09:06:23;100471.0;;;23.7;47.94
64019;BME280;66942;52.138;5.216;2023-08-30T09:08:00;100473.0;;;23.71;47.99
64019;BME280;66942;52.138;5.216;2023-08-30T09:09:38;100472.0;;;23.75;48.1
64019;BME280;66942;52.138;5.216;2023-08-30T09:11:14;100473.0;;;23.86;47.97
64019;BME280;66942;52.138;5.216;2023-08-30T09:14:26;100474.0;;;23.83;48.1
64019;BME280;66942;52.138;5.216;2023-08-30T09:16:03;100474.0;;;23.81;48.29
64019;BME280;66942;52.138;5.216;2023-08-30T09:17:46;100471.0;;;23.82;48.34
64019;BME280;66942;52.138;5.216;2023-08-30T09:21:05;100467.0;;;23.7;49.02
64019;BME280;66942;52.138;5.216;2023-08-30T09:22:42;100470.0;;;23.92;48.66
64019;BME280;66942;52.138;5.216;2023-08-30T09:24:19;100469.0;;;24.09;48.45
64019;BME280;66942;52.138;5.216;2023-08-30T09:25:55;100467.0;;;23.86;49.01
64019;BME280;66942;52.138;5.216;2023-08-30T09:29:08;100460.0;;;23.94;48.91
64019;BME280;66942;52.138;5.216;2023-08-30T09:30:49;100461.0;;;24.06;48.73
64019;BME280;66942;52.138;5.216;2023-08-30T09:32:24;100458.0;;;24.05;48.45
64019;BME280;66942;52.138;5.216;2023-08-30T09:35:43;100459.0;;;24.17;48.59
64019;BME280;66942;52.138;5.216;2023-08-30T09:37:20;100460.0;;;24.05;48.73
64019;BME280;66942;52.138;5.216;2023-08-30T09:38:57;100463.0;;;24.15;48.77
64019;BME280;66942;52.138;5.216;2023-08-30T09:40:33;100462.0;;;24.11;48.82
64019;BME280;66942;52.138;5.216;2023-08-30T09:43:46;100462.0;;;24.32;48.59
64019;BME280;66942;52.138;5.216;2023-08-30T09:45:22;100462.0;;;24.11;48.93
64019;BME280;66942;52.138;5.216;2023-08-30T09:46:58;100465.0;;;24.24;48.83
64019;BME280;66942;52.138;5.216;2023-08-30T09:50:17;100460.0;;;24.36;48.63
64019;BME280;66942;52.138;5.216;2023-08-30T09:51:54;100459.0;;;24.52;48.51
64019;BME280;66942;52.138;5.216;2023-08-30T09:53:33;100462.0;;;24.43;49.03
64019;BME280;66942;52.138;5.216;2023-08-30T09:55:14;100461.0;;;24.46;49.08
64019;BME280;66942;52.138;5.216;2023-08-30T09:58:27;100461.0;;;24.64;48.95
64019;BME280;66942;52.138;5.216;2023-08-30T10:00:05;100455.0;;;24.66;49.18
64019;BME280;66942;52.138;5.216;2023-08-30T10:01:42;100460.0;;;24.88;48.51
64019;BME280;66942;52.138;5.216;2023-08-30T10:04:58;100458.0;;;24.86;48.71
64019;BME280;66942;52.138;5.216;2023-08-30T10:06:35;100456.0;;;25.05;48.4
64019;BME280;66942;52.138;5.216;2023-08-30T10:08:14;100457.0;;;25.14;48.37
64019;BME280;66942;52.138;5.216;2023-08-30T10:09:50;100451.0;;;25.22;48.58
64019;BME280;66942;52.138;5.216;2023-08-30T10:13:05;100448.0;;;25.62;48.36
64019;BME280;66942;52.138;5.216;2023-08-30T10:14:41;100445.0;;;25.91;48.34
64019;BME280;66942;52.138;5.216;2023-08-30T10:16:19;100449.0;;;26.12;48.76
64019;BME280;66942;52.138;5.216;2023-08-30T10:19:36;100458.0;;;26.37;46.99
64019;BME280;66942;52.138;5.216;2023-08-30T10:21:14;100457.0;;;26.31;46.35
64019;BME280;66942;52.138;5.216;2023-08-30T10:22:56;100455.0;;;26.67;45.49
64019;BME280;66942;52.138;5.216;2023-08-30T10:24:38;100457.0;;;26.87;45.34
64019;BME280;66942;52.138;5.216;2023-08-30T10:27:53;100453.0;;;26.89;44.65
64019;BME280;66942;52.138;5.216;2023-08-30T10:29:32;100461.0;;;27.12;44.32
64019;BME280;66942;52.138;5.216;2023-08-30T10:31:12;100460.0;;;27.56;44.88
64019;BME280;66942;52.138;5.216;2023-08-30T10:32:49;100465.0;;;27.65;44.09
64019;BME280;66942;52.138;5.216;2023-08-30T10:36:08;100460.0;;;27.71;40.68
64019;BME280;66942;52.138;5.216;2023-08-30T10:37:53;100462.0;;;27.9;41.12
64019;BME280;66942;52.138;5.216;2023-08-30T10:39:34;100467.0;;;27.94;42.31
64019;BME280;66942;52.138;5.216;2023-08-30T10:41:11;100471.0;;;27.99;38.74
64019;BME280;66942;52.138;5.216;2023-08-30T10:44:34;100481.0;;;27.93;39.76
64019;BME280;66942;52.138;5.216;2023-08-30T10:46:10;100476.0;;;28.16;39.49
64019;BME280;66942;52.138;5.216;2023-08-30T10:47:54;100480.0;;;28.42;40.92
64019;BME280;66942;52.138;5.216;2023-08-30T10:49:39;100480.0;;;28.25;38.18
64019;BME280;66942;52.138;5.216;2023-08-30T10:52:57;100481.0;;;28.21;36.85
64019;BME280;66942;52.138;5.216;2023-08-30T10:54:37;100482.0;;;27.98;37.37
64019;BME280;66942;52.138;5.216;2023-08-30T10:56:13;100480.0;;;27.77;38.42
64019;BME280;66942;52.138;5.216;2023-08-30T10:57:58;100483.0;;;27.55;37.6
64019;BME280;66942;52.138;5.216;2023-08-30T11:01:12;100478.0;;;27.52;37.75
64019;BME280;66942;52.138;5.216;2023-08-30T11:02:49;100484.0;;;27.84;38.0
64019;BME280;66942;52.138;5.216;2023-08-30T11:04:26;100484.0;;;27.6;38.56